Time;durP1;ratioP1;P1;durP2;ratioP2;P2;SDS_P1;SDS_P2;PMS_P1;PMS_P2;Temp;Humidity;BMP_temperature;BMP_pressure;BME280_temperature;BME280_humidity;BME280_pressure;Samples;Min_cycle;Max_cycle;Signal;HPM_P1;HPM_P2
2022/01/22 00:00:17;;;;;;;41.67;16.60;;;0.80;99.90;;;0.59;65.89;98727.28;5025044;28;20474;-81
2022/01/22 00:03:03;;;;;;;50.83;17.45;;;0.80;99.90;;;0.63;65.80;98728.50;5024455;28;20045;-81
2022/01/22 00:05:29;;;;;;;48.50;15.77;;;0.80;99.90;;;0.58;65.74;98736.31;5047440;28;20072;-81
2022/01/22 00:07:54;;;;;;;39.05;14.75;;;0.80;99.90;;;0.57;65.68;98729.34;5030608;28;20076;-81
2022/01/22 00:10:23;;;;;;;36.20;14.18;;;0.80;99.90;;;0.59;65.78;98736.09;5027021;28;20081;-81
2022/01/22 00:15:24;;;;;;;50.83;17.42;;;0.80;99.90;;;0.56;65.18;98744.53;5015966;28;20045;-81
2022/01/22 00:17:50;;;;;;;53.53;21.83;;;0.80;99.90;;;0.13;65.66;98754.91;5001175;28;20530;-80
2022/01/22 00:20:18;;;;;;;75.55;25.08;;;0.70;99.90;;;-0.24;67.35;98752.66;5029599;28;20045;-81
2022/01/22 00:22:45;;;;;;;78.85;25.80;;;0.50;99.90;;;-0.18;67.70;98747.53;5047284;28;20155;-81
2022/01/22 00:25:12;;;;;;;113.85;31.38;;;0.30;99.90;;;-0.33;67.57;98740.56;5015673;28;20115;-81
2022/01/22 00:27:40;;;;;;;24.70;9.90;;;0.10;99.90;;;-0.40;67.10;98742.41;5034086;28;20429;-80
2022/01/22 00:30:08;;;;;;;13.27;5.80;;;0.10;99.90;;;-0.49;66.96;98746.28;5034571;28;20058;-80
2022/01/22 00:32:35;;;;;;;12.10;6.32;;;-0.10;99.90;;;-0.59;66.78;98744.00;5015801;28;20048;-81
2022/01/22 00:35:01;;;;;;;9.25;4.28;;;-0.20;99.90;;;-0.64;66.25;98742.97;5016830;28;20048;-81
2022/01/22 00:37:30;;;;;;;10.90;4.35;;;-0.30;99.90;;;-0.74;65.62;98743.38;5025940;28;20310;-80
2022/01/22 00:39:56;;;;;;;14.18;3.75;;;-0.30;99.90;;;-0.84;65.33;98746.44;5038202;28;20475;-80
2022/01/22 00:42:23;;;;;;;6.80;3.22;;;-0.40;99.90;;;-0.96;66.35;98745.38;5034064;28;20494;-81
2022/01/22 00:44:52;;;;;;;6.47;2.55;;;-0.50;99.90;;;-0.99;66.26;98732.44;5033307;28;20057;-81
2022/01/22 00:47:18;;;;;;;5.15;2.38;;;-0.60;99.90;;;-0.92;66.57;98733.28;5016691;28;20096;-80
2022/01/22 00:49:44;;;;;;;9.85;3.55;;;-0.60;99.90;;;-0.79;66.29;98736.00;5041677;28;20072;-80
2022/01/22 00:52:13;;;;;;;3.80;2.05;;;-0.60;99.90;;;-0.87;65.78;98717.53;5003549;28;20044;-80
2022/01/22 00:54:39;;;;;;;8.35;2.30;;;-0.50;99.90;;;-0.91;65.69;98717.13;5034279;28;20044;-80
2022/01/22 00:57:05;;;;;;;4.47;1.98;;;-0.60;99.90;;;-0.84;65.81;98718.97;5017230;28;20127;-81
2022/01/22 00:59:31;;;;;;;6.43;2.83;;;-0.60;99.90;;;-0.67;65.81;98737.03;5018803;28;20048;-80
2022/01/22 01:01:57;;;;;;;7.93;2.70;;;-0.50;99.90;;;-0.61;65.93;98735.44;5021677;28;20123;-80
2022/01/22 01:04:23;;;;;;;6.70;2.55;;;-0.40;99.90;;;-0.67;65.05;98736.22;5019548;28;20139;-81
2022/01/22 01:06:49;;;;;;;8.65;2.50;;;-0.30;99.90;;;-0.68;65.39;98737.25;5035501;28;20551;-81
2022/01/22 01:09:17;;;;;;;8.48;2.60;;;-0.30;99.90;;;-0.54;65.79;98722.09;5022322;28;20065;-80
2022/01/22 01:11:53;;;;;;;8.32;2.58;;;-0.30;99.90;;;-0.45;65.29;98716.38;5002884;28;20765;-80
2022/01/22 01:14:30;;;;;;;8.02;2.00;;;-0.30;99.90;;;-0.46;65.42;98722.72;5023399;28;20048;-80
2022/01/22 01:33:29;;;;;;;6.13;2.72;;;-0.20;99.90;;;-0.35;65.28;98710.63;5038109;28;20055;-80
2022/01/22 01:35:56;;;;;;;7.03;2.42;;;-0.10;99.90;;;-0.33;65.36;98718.41;5037784;28;20048;-80
2022/01/22 01:38:24;;;;;;;2.58;1.85;;;-0.10;99.90;;;-0.28;64.83;98714.13;5036549;28;20075;-80
2022/01/22 01:41:01;;;;;;;7.35;2.25;;;-0.10;99.90;;;-0.34;65.08;98720.25;5034283;28;20063;-80
2022/01/22 01:43:33;;;;;;;5.28;1.90;;;-0.10;99.90;;;-0.42;65.25;98712.47;5005743;28;20069;-80
2022/01/22 01:45:59;;;;;;;;;;;-0.10;99.90;;;-0.44;65.06;98706.50;5028744;28;20481;-81
2022/01/22 01:48:29;;;;;;;5.28;2.60;;;-0.10;99.90;;;-0.52;65.03;98706.72;5050056;28;19921;-80
2022/01/22 01:50:59;;;;;;;7.38;3.97;;;-0.20;99.90;;;-0.55;64.88;98701.81;5004829;28;20100;-80
2022/01/22 01:57:24;;;;;;;8.77;3.95;;;-0.20;99.90;;;-0.60;64.96;98705.09;5038521;28;20325;-80
2022/01/22 01:58:49;;;;;;;9.40;4.18;;;-0.30;99.90;;;-0.65;64.46;98704.88;5048495;28;20040;-81
2022/01/22 02:01:15;;;;;;;19.80;9.20;;;-0.30;99.90;;;-0.75;64.73;98691.94;5038186;28;20048;-80
2022/01/22 02:03:41;;;;;;;21.40;13.13;;;-0.40;99.90;;;-0.76;64.59;98700.97;5035468;28;20105;-80
2022/01/22 02:06:07;;;;;;;21.83;13.15;;;-0.50;99.90;;;-0.79;65.04;98688.06;5050879;28;20037;-80
2022/01/22 02:08:33;;;;;;;24.90;12.77;;;-0.50;99.90;;;-0.77;64.92;98694.00;5017721;28;20052;-80
2022/01/22 02:11:01;;;;;;;14.38;7.03;;;-0.50;99.90;;;-0.78;64.69;98689.69;5019244;28;20511;-81
2022/01/22 02:13:43;;;;;;;10.30;5.78;;;-0.50;99.90;;;-0.81;64.93;98690.09;5034660;28;20045;-80
2022/01/22 02:24:42;;;;;;;4.78;3.08;;;-0.60;99.90;;;-0.85;64.94;98678.22;5035276;28;20044;-81
2022/01/22 02:27:08;;;;;;;7.20;2.55;;;-0.60;99.90;;;-0.76;64.58;98676.19;5033730;28;20480;-81
2022/01/22 02:29:34;;;;;;;5.70;2.67;;;-0.60;99.90;;;-0.79;64.85;98676.56;5036289;28;20071;-80
2022/01/22 02:32:38;;;;;;;11.60;2.78;;;-0.50;99.90;;;-0.86;65.29;98678.44;5018245;28;20076;-81
2022/01/22 02:35:07;;;;;;;6.85;3.08;;;-0.50;99.90;;;-0.85;65.06;98678.22;5050656;28;20610;-80
2022/01/22 02:37:37;;;;;;;10.52;3.20;;;-0.50;99.90;;;-0.83;65.57;98684.16;5027419;28;20312;-80
2022/01/22 02:42:33;;;;;;;6.28;3.13;;;-0.50;99.90;;;-0.96;65.45;98687.63;5021479;28;20049;-80
2022/01/22 02:44:59;;;;;;;7.72;3.20;;;-0.60;99.90;;;-0.96;66.14;98694.78;5032777;28;20037;-81
2022/01/22 02:47:25;;;;;;;5.78;2.95;;;-0.60;99.90;;;-1.00;66.20;98691.69;5002076;28;20450;-80
2022/01/22 02:49:52;;;;;;;5.10;3.00;;;-0.60;99.90;;;-1.03;65.90;98691.28;5014198;28;20073;-80
2022/01/22 02:52:18;;;;;;;8.07;4.13;;;-0.60;99.90;;;-0.98;65.56;98684.34;5015984;28;20041;-81
2022/01/22 02:54:44;;;;;;;5.57;3.95;;;-0.70;99.90;;;-1.03;66.31;98693.94;5020577;28;20552;-80
2022/01/22 02:57:12;;;;;;;13.35;4.32;;;-0.70;99.90;;;-1.06;65.89;98695.19;5017269;28;20101;-80
2022/01/22 02:59:38;;;;;;;10.57;4.97;;;-0.80;99.90;;;-1.08;66.13;98688.41;5017778;28;20045;-81
2022/01/22 03:02:05;;;;;;;12.02;5.07;;;-0.70;99.90;;;-0.99;66.16;98692.50;5036404;28;20070;-80
2022/01/22 03:04:31;;;;;;;10.93;6.30;;;-0.70;99.90;;;-0.99;65.96;98689.84;5033862;28;20488;-80
2022/01/22 03:06:57;;;;;;;11.50;6.75;;;-0.80;99.90;;;-1.09;66.07;98690.25;5017555;28;20090;-80
2022/01/22 03:09:28;;;;;;;9.23;6.30;;;-0.80;99.90;;;-1.20;66.33;98681.00;5031354;28;20133;-80
2022/01/22 03:27:29;;;;;;;17.52;7.55;;;-0.80;99.90;;;-1.23;65.33;98694.72;5025588;28;20057;-80
2022/01/22 03:29:56;;;;;;;18.92;7.35;;;-0.80;99.90;;;-1.37;64.73;98698.38;5030831;28;20111;-80
2022/01/22 03:32:24;;;;;;;15.27;6.85;;;-1.00;99.90;;;-1.52;63.99;98706.47;5002940;28;20041;-80
2022/01/22 03:35:00;;;;;;;20.95;8.20;;;-1.20;99.90;;;-1.70;63.85;98701.69;5017283;28;20033;-80
2022/01/22 03:37:27;;;;;;;21.33;8.23;;;-1.40;99.90;;;-1.90;63.91;98708.75;5032660;28;20522;-80
2022/01/22 03:39:54;;;;;;;19.65;7.90;;;-1.60;99.90;;;-2.15;64.71;98709.19;5047658;28;20045;-80
2022/01/22 03:42:20;;;;;;;322.98;23.23;;;-1.80;99.90;;;-2.45;64.66;98709.38;5050675;28;20037;-80
2022/01/22 03:44:46;;;;;;;18.83;7.20;;;-2.00;99.90;;;-2.70;64.88;98714.25;5034819;28;20040;-81
2022/01/22 03:47:12;;;;;;;17.55;8.95;;;-2.20;99.90;;;-2.89;64.40;98713.06;5014487;28;20055;-80
2022/01/22 03:49:38;;;;;;;17.73;9.13;;;-2.40;99.90;;;-3.02;64.53;98709.47;5032652;28;20120;-80
2022/01/22 03:52:05;;;;;;;29.20;8.55;;;-2.60;99.90;;;-3.17;64.33;98709.50;5017259;28;20123;-81
2022/01/22 03:54:30;;;;;;;73.35;10.98;;;-2.80;99.90;;;-3.36;64.47;98705.59;5034085;28;20064;-80
2022/01/22 03:56:56;;;;;;;26.23;10.38;;;-3.00;99.90;;;-3.61;64.33;98715.69;5017531;28;20044;-80
2022/01/22 03:59:23;;;;;;;87.90;13.25;;;-3.10;99.90;;;-3.79;65.07;98721.38;5019714;28;20049;-81
2022/01/22 04:04:22;;;;;;;31.65;13.10;;;-3.50;99.90;;;-3.99;65.27;98707.88;5016462;28;20393;-80
2022/01/22 04:09:30;;;;;;;28.33;9.68;;;-3.80;99.90;;;-4.31;64.64;98704.56;5035257;28;20048;-80
2022/01/22 04:11:58;;;;;;;77.63;9.65;;;-3.90;99.90;;;-4.47;64.59;98702.88;4996458;28;20116;-80
2022/01/22 04:14:29;;;;;;;16.65;7.38;;;-4.10;99.90;;;-4.69;64.55;98707.19;5005244;28;20551;-81
2022/01/22 04:17:19;;;;;;;36.53;6.97;;;-4.20;99.90;;;-4.99;64.56;98702.81;5022026;28;20064;-80
2022/01/22 04:25:21;;;;;;;26.98;8.80;;;-4.80;99.90;;;-5.56;66.03;98728.59;5019682;28;20593;-81
2022/01/22 04:27:48;;;;;;;34.85;6.88;;;-5.00;99.90;;;-5.82;64.63;98730.69;5053777;28;20048;-81
2022/01/22 04:30:14;;;;;;;204.07;20.27;;;-5.20;99.90;;;-6.10;64.24;98732.94;5035555;28;20059;-81
2022/01/22 04:32:40;;;;;;;78.05;10.63;;;-5.50;99.90;;;-6.27;64.88;98740.06;5019006;28;20137;-80
2022/01/22 04:35:06;;;;;;;41.95;11.23;;;-5.60;99.90;;;-6.47;65.05;98740.41;5037773;28;20594;-80
2022/01/22 04:37:32;;;;;;;198.52;18.40;;;-5.80;99.90;;;-6.53;67.23;98734.97;5054726;28;20547;-81
2022/01/22 04:39:58;;;;;;;82.97;14.02;;;-6.00;99.90;;;-6.45;69.16;98748.16;5000826;28;20389;-80
2022/01/22 04:42:25;;;;;;;46.60;12.38;;;-6.00;99.90;;;-6.45;68.67;98748.16;5015201;28;20119;-81
2022/01/22 04:45:00;;;;;;;60.33;14.20;;;-6.00;99.90;;;-6.38;69.43;98754.44;5033123;28;20047;-81
2022/01/22 04:47:42;;;;;;;66.10;15.82;;;-6.00;99.90;;;-6.30;69.79;98753.59;5006437;28;20123;-81
2022/01/22 04:55:40;;;;;;;21.35;12.90;;;-5.80;99.90;;;-5.98;69.48;98764.09;5028050;28;20053;-80
2022/01/22 04:58:06;;;;;;;31.75;12.88;;;-5.70;99.90;;;-5.94;69.16;98773.31;5036138;28;20049;-80
2022/01/22 05:00:34;;;;;;;24.25;11.43;;;-5.50;99.90;;;-6.02;68.66;98768.06;5049732;28;20045;-81
2022/01/22 05:03:01;;;;;;;39.08;14.40;;;-5.50;99.90;;;-6.09;67.91;98785.56;5034204;28;20036;-80
2022/01/22 05:05:27;;;;;;;20.70;9.43;;;-5.60;99.90;;;-6.14;67.71;98793.16;5002060;28;20119;-80
2022/01/22 05:07:53;;;;;;;28.75;12.38;;;-5.70;99.90;;;-6.17;67.58;98798.78;5037755;28;20037;-80
2022/01/22 05:10:20;;;;;;;24.50;10.48;;;-5.70;99.90;;;-6.20;67.26;98791.22;5015684;28;20048;-80
2022/01/22 05:12:46;;;;;;;23.50;10.93;;;-5.70;99.90;;;-6.34;66.97;98792.69;5018525;28;20574;-81
2022/01/22 05:15:12;;;;;;;37.70;12.88;;;-5.80;99.90;;;-6.40;66.59;98799.44;5017882;28;20082;-81
2022/01/22 05:17:41;;;;;;;40.63;13.02;;;-5.90;99.90;;;-6.49;66.37;98805.72;5020777;28;20064;-81
2022/01/22 05:20:17;;;;;;;37.70;13.57;;;-6.00;99.90;;;-6.52;66.83;98805.22;5022211;28;20107;-81
2022/01/22 05:25:15;;;;;;;44.58;14.38;;;-6.10;99.90;;;-6.54;66.37;98802.72;5032761;28;20033;-80
2022/01/22 05:33:14;;;;;;;65.95;23.55;;;-6.20;99.90;;;-6.64;67.17;98796.78;5019738;28;20051;-81
2022/01/22 05:38:32;;;;;;;51.83;19.85;;;-6.20;99.90;;;-6.66;67.18;98794.34;5022900;28;20044;-80
2022/01/22 05:40:59;;;;;;;48.65;14.10;;;-6.20;99.90;;;-6.81;66.93;98812.63;5050200;28;20041;-80
2022/01/22 05:43:25;;;;;;;40.88;15.65;;;-6.20;99.90;;;-6.91;66.90;98813.75;5035934;28;20052;-80
2022/01/22 05:45:52;;;;;;;38.58;14.52;;;-6.30;99.90;;;-7.12;66.56;98829.97;5014921;28;20040;-80
2022/01/22 05:48:18;;;;;;;35.25;16.00;;;-6.50;99.90;;;-7.11;66.96;98837.75;5017405;28;20070;-80
2022/01/22 05:51:06;;;;;;;34.85;16.63;;;-6.60;99.90;;;-7.07;68.23;98836.47;5051746;28;20107;-80
2022/01/22 05:53:52;;;;;;;31.23;13.77;;;-6.60;99.90;;;-6.97;67.73;98833.69;5053819;28;20148;-80
2022/01/22 06:01:45;;;;;;;34.10;14.13;;;-6.60;99.90;;;-7.11;67.54;98850.09;5038841;28;20045;-80
2022/01/22 06:04:12;;;;;;;30.05;14.10;;;-6.60;99.90;;;-7.11;67.36;98850.94;5016916;28;20120;-81
2022/01/22 06:06:37;;;;;;;31.27;15.15;;;-6.60;99.90;;;-7.19;67.05;98856.19;5000780;28;20174;-80
2022/01/22 06:09:08;;;;;;;41.53;13.75;;;-6.70;99.90;;;-7.27;66.71;98864.88;5030701;28;20524;-81
2022/01/22 06:11:41;;;;;;;35.35;12.38;;;-6.70;99.90;;;-7.32;66.76;98866.34;5006340;28;20064;-81
2022/01/22 06:14:07;;;;;;;40.03;16.48;;;-6.80;99.90;;;-7.28;67.82;98867.66;5036456;28;20453;-81
2022/01/22 06:16:32;;;;;;;41.65;16.90;;;-6.80;99.90;;;-7.14;68.85;98874.16;5001210;28;20071;-81
2022/01/22 06:18:58;;;;;;;40.70;16.05;;;-6.80;99.90;;;-7.09;68.56;98874.50;5015236;28;20045;-80
2022/01/22 06:21:24;;;;;;;33.85;14.40;;;-6.70;99.90;;;-7.12;68.15;98878.28;5016144;28;20084;-81
2022/01/22 06:23:50;;;;;;;37.47;15.55;;;-6.60;99.90;;;-7.20;68.28;98880.88;5014591;28;20045;-80
2022/01/22 06:26:16;;;;;;;30.73;13.25;;;-6.70;99.90;;;-7.22;67.90;98888.13;5014405;28;20576;-80
2022/01/22 06:28:43;;;;;;;25.95;12.40;;;-6.70;99.90;;;-7.24;67.04;98890.91;5014372;28;20069;-80
2022/01/22 06:31:09;;;;;;;37.05;13.48;;;-6.70;99.90;;;-7.37;66.84;98893.16;5013228;28;20413;-80
2022/01/22 06:33:35;;;;;;;28.77;12.63;;;-6.70;99.90;;;-7.39;66.66;98896.94;5013476;28;20563;-80
2022/01/22 06:36:01;;;;;;;36.88;13.10;;;-6.80;99.90;;;-7.43;66.88;98901.69;5019150;28;20045;-80
2022/01/22 06:38:27;;;;;;;33.67;16.00;;;-6.90;99.90;;;-7.39;67.10;98904.84;5034206;28;20522;-80
2022/01/22 06:43:37;;;;;;;32.72;16.08;;;-6.80;99.90;;;-7.15;68.53;98910.22;5033731;28;20083;-80
2022/01/22 06:46:03;;;;;;;69.57;17.15;;;-6.70;99.90;;;-6.91;68.35;98900.78;5001637;28;20039;-80
2022/01/22 06:48:29;;;;;;;39.03;17.85;;;-6.50;99.90;;;-6.77;68.67;98911.56;5017731;28;20073;-80
2022/01/22 06:50:55;;;;;;;30.60;15.52;;;-6.40;99.90;;;-6.60;68.39;98909.75;5001374;28;20041;-80
2022/01/22 06:53:21;;;;;;;36.60;16.05;;;-6.20;99.90;;;-6.46;68.56;98903.06;5002395;28;20115;-80
2022/01/22 06:55:56;;;;;;;35.75;14.35;;;-6.00;99.90;;;-6.30;68.29;98901.44;5032860;28;20061;-80
2022/01/22 06:58:22;;;;;;;34.92;16.40;;;-5.90;99.90;;;-6.12;68.72;98899.47;5002089;28;20068;-80
2022/01/22 07:00:48;;;;;;;35.58;15.75;;;-5.70;99.90;;;-5.90;68.64;98901.41;5036171;28;20070;-80
2022/01/22 07:03:14;;;;;;;33.85;14.10;;;-5.50;99.90;;;-5.61;68.98;98910.63;5008901;28;20197;-80
2022/01/22 07:05:40;;;;;;;33.08;11.70;;;-5.30;99.90;;;-5.34;69.38;98916.50;5017821;28;20079;-80
2022/01/22 07:08:06;;;;;;;23.70;12.38;;;-5.10;99.90;;;-4.84;70.69;98910.09;5032391;28;20072;-80
2022/01/22 07:10:32;;;;;;;27.15;13.63;;;-4.70;99.90;;;-4.23;72.02;98899.66;5014892;28;20089;-81
2022/01/22 07:12:58;;;;;;;24.98;13.20;;;-4.30;99.90;;;-3.73;71.95;98898.28;5015505;28;20128;-81
2022/01/22 07:15:24;;;;;;;27.63;11.70;;;-3.70;99.90;;;-3.31;72.35;98910.13;4997812;28;20044;-81
2022/01/22 07:17:51;;;;;;;24.92;11.85;;;-3.20;99.90;;;-2.94;72.29;98908.41;5012103;28;20164;-81
2022/01/22 07:20:25;;;;;;;24.88;11.68;;;-2.80;99.90;;;-2.59;71.95;98901.50;4993669;28;20489;-81
2022/01/22 07:22:54;;;;;;;18.95;10.38;;;-2.50;99.90;;;-2.25;71.83;98908.81;5029177;28;20150;-81
2022/01/22 07:25:20;;;;;;;23.80;10.93;;;-2.10;99.90;;;-2.00;71.34;98908.47;5014913;28;20044;-81
2022/01/22 07:27:46;;;;;;;23.35;10.43;;;-1.80;99.90;;;-1.85;71.71;98906.56;5013553;28;20477;-81
2022/01/22 07:30:13;;;;;;;20.70;10.32;;;-1.50;99.90;;;-1.68;70.56;98909.78;5012991;28;20121;-81
2022/01/22 07:32:42;;;;;;;23.60;10.93;;;-1.40;99.90;;;-1.59;70.21;98911.25;5049390;28;20060;-81
2022/01/22 07:35:09;;;;;;;18.55;10.48;;;-1.20;99.90;;;-1.57;69.50;98919.88;5029341;28;20051;-81
2022/01/22 07:37:36;;;;;;;33.40;12.15;;;-1.10;99.90;;;-1.55;69.42;98915.19;5028915;28;20110;-81
2022/01/22 07:40:05;;;;;;;21.42;11.77;;;-1.10;99.90;;;-1.55;68.88;98909.88;5016470;28;20587;-81
2022/01/22 07:42:31;;;;;;;26.33;11.90;;;-1.10;99.90;;;-1.51;68.54;98914.81;5034916;28;20064;-79
2022/01/22 07:44:58;;;;;;;22.73;11.20;;;-1.00;99.90;;;-1.36;68.37;98920.84;4999923;28;20051;-79
2022/01/22 07:47:24;;;;;;;24.75;11.57;;;-0.90;99.90;;;-1.17;68.14;98925.50;5013767;28;20067;-80
2022/01/22 07:49:51;;;;;;;28.23;11.77;;;-0.90;99.90;;;-0.96;67.77;98929.13;5049559;28;20067;-79
2022/01/22 07:52:18;;;;;;;27.17;12.05;;;-0.70;99.90;;;-0.85;67.78;98938.38;5009670;28;20068;-81
2022/01/22 07:54:53;;;;;;;29.70;12.50;;;-0.50;99.90;;;-0.72;67.28;98943.78;4997951;28;20044;-80
2022/01/22 07:57:21;;;;;;;26.15;13.13;;;-0.30;99.90;;;-0.59;67.06;98943.84;5000935;28;20374;-80
2022/01/22 07:59:49;;;;;;;30.60;14.88;;;-0.20;99.90;;;-0.45;66.73;98947.41;5016642;28;20045;-80
2022/01/22 08:02:16;;;;;;;31.00;14.27;;;-0.10;99.90;;;-0.25;66.99;98956.28;5015013;28;20503;-81
2022/01/22 08:04:45;;;;;;;35.35;13.27;;;0.10;99.90;;;-0.10;65.92;98952.63;5031512;28;20041;-81
2022/01/22 08:07:11;;;;;;;33.05;13.00;;;0.30;99.90;;;-0.01;65.20;98968.25;5041343;28;20124;-81
2022/01/22 08:09:37;;;;;;;33.03;13.90;;;0.40;99.90;;;0.10;65.05;98966.84;4996186;28;20086;-81
2022/01/22 08:12:04;;;;;;;28.08;12.68;;;0.50;99.90;;;0.13;63.98;98965.63;5014409;28;20136;-81
2022/01/22 08:14:30;;;;;;;25.10;11.15;;;0.60;99.90;;;0.02;63.84;98979.53;5001533;28;20579;-81
2022/01/22 08:16:56;;;;;;;29.67;13.63;;;0.60;99.90;;;-0.07;64.08;98982.38;5013588;28;20041;-81
2022/01/22 08:19:23;;;;;;;28.70;13.23;;;0.60;99.90;;;-0.08;63.77;98979.91;5005379;28;20044;-83
2022/01/22 08:21:49;;;;;;;39.00;13.57;;;0.40;99.90;;;-0.09;63.07;98979.09;5005960;28;20037;-83
2022/01/22 08:24:18;;;;;;;26.88;11.85;;;0.40;99.90;;;-0.16;63.22;98978.25;5019956;28;20037;-83
2022/01/22 08:26:50;;;;;;;38.15;11.95;;;0.40;99.90;;;-0.28;62.37;98994.00;5001200;28;20699;-83
2022/01/22 08:29:17;;;;;;;27.42;13.23;;;0.30;99.90;;;-0.32;63.01;98998.09;5042044;28;20037;-83
2022/01/22 08:32:02;;;;;;;26.83;13.00;;;0.20;99.90;;;-0.36;62.57;98996.81;5038599;28;20476;-83
2022/01/22 08:37:16;;;;;;;25.10;11.60;;;0.10;99.90;;;-0.44;62.82;98999.66;5035190;28;20041;-83
2022/01/22 08:39:43;;;;;;;24.48;10.90;;;0.00;99.90;;;-0.38;62.70;99014.88;5017981;28;20045;-82
2022/01/22 08:42:09;;;;;;;40.47;14.23;;;0.00;99.90;;;-0.18;62.38;99016.78;5028945;28;20041;-83
2022/01/22 08:44:35;;;;;;;27.75;12.75;;;0.20;99.90;;;0.02;62.04;99023.03;5024041;28;20075;-83
2022/01/22 08:47:01;;;;;;;28.55;13.30;;;0.40;99.90;;;0.29;61.80;99028.47;5016299;28;20128;-83
2022/01/22 08:49:27;;;;;;;36.25;14.63;;;0.60;99.90;;;0.51;61.53;99032.63;5002242;28;20064;-83
2022/01/22 08:51:53;;;;;;;35.45;15.27;;;0.90;99.90;;;0.79;60.82;99026.25;5037349;28;20037;-84
2022/01/22 08:54:19;;;;;;;27.48;13.35;;;1.20;99.90;;;1.00;60.47;99039.44;5030525;28;20045;-84
2022/01/22 08:56:45;;;;;;;32.53;14.60;;;1.40;99.90;;;1.22;60.33;99032.03;5015720;28;20107;-84
2022/01/22 08:59:13;;;;;;;33.63;12.60;;;1.60;99.90;;;1.35;59.14;99035.69;5024573;28;20563;-83
2022/01/22 09:01:41;;;;;;;23.70;12.25;;;1.80;99.90;;;1.36;58.83;99027.47;5026197;28;20057;-83
2022/01/22 09:04:07;;;;;;;26.77;12.20;;;2.00;99.90;;;1.44;59.31;99016.53;5031802;28;20024;-83
2022/01/22 09:06:33;;;;;;;22.85;10.98;;;2.00;99.90;;;1.50;58.55;99017.56;5031588;28;20128;-83
2022/01/22 09:09:09;;;;;;;22.33;10.50;;;2.00;99.90;;;1.58;57.78;99013.84;5027147;28;20040;-83
2022/01/22 09:11:36;;;;;;;18.83;9.98;;;2.10;99.90;;;1.65;57.17;99022.66;5045559;28;20561;-83
2022/01/22 09:14:04;;;;;;;22.55;9.35;;;2.20;99.90;;;1.59;55.93;99039.56;5031186;28;20040;-83
2022/01/22 09:16:30;;;;;;;15.77;8.23;;;2.20;99.90;;;1.58;56.71;99037.91;5011686;28;20044;-83
2022/01/22 09:19:05;;;;;;;16.25;8.57;;;2.20;99.90;;;1.51;56.68;99044.09;5029837;28;20068;-83
2022/01/22 09:21:46;;;;;;;14.80;7.10;;;2.10;99.90;;;1.32;57.15;99047.59;5018942;28;20041;-83
2022/01/22 09:24:17;;;;;;;18.50;9.88;;;2.00;99.90;;;1.42;57.66;99034.63;5038440;28;20516;-83
2022/01/22 09:26:44;;;;;;;18.65;7.63;;;2.00;99.90;;;1.57;56.70;99033.59;5025681;28;20114;-82
2022/01/22 09:29:11;;;;;;;22.88;10.35;;;2.10;99.90;;;1.70;56.63;99039.72;5033795;28;20098;-83
2022/01/22 09:31:37;;;;;;;27.90;12.05;;;2.20;99.90;;;1.87;56.44;99036.59;5006157;28;20606;-83
2022/01/22 09:34:05;;;;;;;20.70;9.05;;;2.40;99.90;;;1.85;55.47;99035.97;5020018;28;20044;-83
2022/01/22 09:36:31;;;;;;;24.10;9.65;;;2.40;99.90;;;1.88;55.68;99035.53;5037932;28;20869;-83
2022/01/22 09:38:57;;;;;;;25.08;10.10;;;2.40;99.90;;;1.93;55.60;99041.94;5035984;28;20043;-83
2022/01/22 09:41:24;;;;;;;12.82;6.65;;;2.50;99.90;;;1.77;53.90;99028.19;5010295;28;20071;-82
2022/01/22 09:43:55;;;;;;;19.88;7.53;;;2.40;99.90;;;1.59;54.48;99029.69;5021392;28;20071;-82
2022/01/22 09:46:22;;;;;;;17.35;8.13;;;2.20;99.90;;;1.50;55.22;99017.56;5045123;28;20404;-82
2022/01/22 09:48:49;;;;;;;13.23;6.97;;;2.00;99.90;;;1.43;54.08;99032.81;5023191;28;20048;-82
2022/01/22 09:51:15;;;;;;;11.20;6.40;;;1.90;99.90;;;1.62;54.54;99045.28;5000211;28;20048;-82
2022/01/22 09:53:42;;;;;;;19.70;8.73;;;1.90;99.90;;;1.70;53.85;99050.41;5036014;28;20412;-83
2022/01/22 09:56:10;;;;;;;17.42;7.88;;;2.00;99.90;;;1.85;53.08;99068.91;5025107;28;20065;-83
2022/01/22 09:58:36;;;;;;;15.05;6.38;;;2.10;99.90;;;2.05;53.19;99073.38;5026132;28;20033;-83
2022/01/22 10:01:38;;;;;;;15.25;7.47;;;2.30;99.90;;;1.98;52.82;99080.59;5025036;28;20044;-82
2022/01/22 10:04:05;;;;;;;13.27;5.63;;;2.40;99.90;;;1.78;53.69;99084.16;4963100;28;20069;-83
2022/01/22 10:06:34;;;;;;;15.32;7.93;;;2.40;99.90;;;1.83;53.30;99080.84;5032411;28;20053;-82
2022/01/22 10:09:12;;;;;;;9.40;5.80;;;2.40;99.90;;;1.87;53.58;99077.53;5021223;28;20044;-82
2022/01/22 10:11:41;;;;;;;17.75;7.40;;;2.30;99.90;;;1.97;52.88;99086.97;5022570;28;20029;-82
2022/01/22 10:14:08;;;;;;;15.68;6.47;;;2.30;99.90;;;2.01;52.93;99088.19;5009304;28;20063;-82
2022/01/22 10:16:40;;;;;;;12.40;5.78;;;2.30;99.90;;;1.90;53.45;99082.47;5025130;28;20032;-83
2022/01/22 10:19:26;;;;;;;13.52;6.32;;;2.30;99.90;;;1.92;53.37;99083.06;5023361;28;20436;-82
2022/01/22 10:21:59;;;;;;;20.10;7.13;;;2.40;99.90;;;1.83;53.61;99080.84;5031964;28;20575;-83
2022/01/22 10:27:33;;;;;;;20.17;7.60;;;2.40;99.90;;;1.86;54.87;99083.13;5046107;28;20114;-82
2022/01/22 10:30:10;;;;;;;15.10;6.82;;;2.40;99.90;;;1.81;54.73;99082.91;5019751;28;20480;-82
2022/01/22 10:35:09;;;;;;;17.77;8.57;;;2.20;99.90;;;1.64;55.09;99074.50;5014667;28;20130;-82
2022/01/22 10:37:37;;;;;;;18.92;6.45;;;2.20;99.90;;;1.47;55.49;99076.78;5038814;28;20063;-82
2022/01/22 10:40:29;;;;;;;23.13;7.47;;;2.00;99.90;;;1.58;55.26;99075.34;5002670;28;20114;-82
2022/01/22 10:48:44;;;;;;;23.30;7.88;;;2.00;99.90;;;1.26;55.75;99076.00;5017967;28;20075;-83
2022/01/22 10:51:15;;;;;;;22.85;7.30;;;2.00;99.90;;;1.04;56.33;99083.41;5020439;28;20075;-82
2022/01/22 10:53:44;;;;;;;15.52;7.03;;;1.70;99.90;;;0.94;56.03;99092.84;5014619;28;20071;-82
2022/01/22 10:56:17;;;;;;;19.25;7.57;;;1.50;99.90;;;0.84;56.63;99087.88;5034568;28;20037;-82
2022/01/22 10:59:01;;;;;;;21.83;6.93;;;1.40;99.90;;;0.96;56.20;99104.13;5001001;28;21176;-82
2022/01/22 11:01:57;;;;;;;14.05;6.00;;;1.30;99.90;;;1.00;56.32;99084.03;5045242;28;20041;-81
2022/01/22 11:04:24;;;;;;;14.90;7.40;;;1.40;99.90;;;1.30;55.17;99087.13;5036014;28;20077;-79
2022/01/22 11:07:00;;;;;;;17.30;7.63;;;1.70;99.90;;;1.83;54.04;99097.72;5031234;28;20041;-80
2022/01/22 11:09:30;;;;;;;14.05;6.80;;;2.10;99.90;;;1.83;54.09;99110.25;5045804;28;20101;-81
2022/01/22 11:11:57;;;;;;;20.17;8.65;;;2.20;99.90;;;1.55;54.08;99105.97;5029805;28;20132;-82
2022/01/22 11:14:23;;;;;;;20.63;6.80;;;2.10;99.90;;;1.42;54.78;99098.78;5011436;28;20064;-82
2022/01/22 11:16:50;;;;;;;22.40;8.65;;;2.00;99.90;;;1.48;54.10;99114.03;5010447;28;20040;-82
2022/01/22 11:19:18;;;;;;;17.73;7.53;;;1.90;99.90;;;1.88;53.75;99119.31;4994608;28;20076;-82
2022/01/22 11:21:47;;;;;;;15.68;6.55;;;2.10;99.90;;;2.09;53.28;99122.75;5032265;28;20399;-83
2022/01/22 11:24:24;;;;;;;20.13;5.65;;;2.40;99.90;;;2.03;52.69;99128.94;5016917;28;20044;-83
2022/01/22 11:27:04;;;;;;;16.20;6.82;;;2.50;99.90;;;1.97;53.36;99135.97;4998976;28;20132;-83
2022/01/22 11:29:36;;;;;;;14.07;6.93;;;2.40;99.90;;;1.85;53.33;99119.72;5023041;28;20049;-83
2022/01/22 11:32:06;;;;;;;16.45;7.38;;;2.30;99.90;;;1.75;53.15;99132.69;5046761;28;20095;-83
2022/01/22 11:34:32;;;;;;;24.13;7.13;;;2.20;99.90;;;1.64;53.79;99130.66;5014495;28;20469;-83
2022/01/22 11:37:19;;;;;;;19.92;7.32;;;2.10;99.90;;;1.44;54.41;99130.69;4993508;28;20049;-83
2022/01/22 11:39:45;;;;;;;15.82;7.05;;;2.00;99.90;;;1.84;53.93;99155.53;5029761;28;20077;-83
2022/01/22 11:42:11;;;;;;;22.77;7.65;;;2.00;99.90;;;2.02;53.15;99164.78;5027170;28;20111;-83
2022/01/22 11:44:50;;;;;;;16.65;8.65;;;2.30;99.90;;;1.82;53.41;99165.63;5011051;28;20045;-83
2022/01/22 11:47:22;;;;;;;15.68;7.43;;;2.30;99.90;;;1.71;54.38;99174.28;5041625;28;20129;-82
2022/01/22 11:50:06;;;;;;;;;;;2.20;99.90;;;1.81;54.75;99169.34;5040536;28;20056;-83
2022/01/22 11:52:41;;;;;;;21.50;7.70;;;2.20;99.90;;;1.79;54.40;99171.38;5061463;28;20434;-82
2022/01/22 11:55:14;;;;;;;15.43;8.45;;;2.20;99.90;;;1.59;55.09;99173.25;5028496;28;20087;-83
2022/01/22 11:57:42;;;;;;;18.42;8.32;;;2.00;99.90;;;1.27;56.48;99183.72;5026125;28;20044;-83
2022/01/22 12:00:25;;;;;;;17.20;8.32;;;1.90;99.90;;;1.25;57.32;99183.13;5032241;28;20048;-83